Time;durP1;ratioP1;P1;durP2;ratioP2;P2;SDS_P1;SDS_P2;PMS_P1;PMS_P2;Temp;Humidity;BMP_temperature;BMP_pressure;BME280_temperature;BME280_humidity;BME280_pressure;Samples;Min_cycle;Max_cycle;Signal;HPM_P1;HPM_P2
2024/02/19 00:01:20;;;;;;;0.30;0.30;;;;;;;;;;5001245;28;20102;-90
2024/02/19 00:03:47;;;;;;;0.40;0.40;;;;;;;;;;5009245;28;20065;-90
2024/02/19 00:06:14;;;;;;;0.70;0.50;;;;;;;;;;5013046;28;20050;-92
2024/02/19 00:08:41;;;;;;;0.30;0.30;;;;;;;;;;5006222;28;20089;-91
2024/02/19 00:11:09;;;;;;;0.40;0.30;;;;;;;;;;5004098;28;20050;-92
2024/02/19 00:13:39;;;;;;;0.30;0.30;;;;;;;;;;5006726;28;20053;-92
2024/02/19 00:16:06;;;;;;;0.20;0.20;;;;;;;;;;5025737;28;20034;-90
2024/02/19 00:18:34;;;;;;;0.93;0.30;;;;;;;;;;5011927;28;20058;-92
2024/02/19 00:21:01;;;;;;;0.20;0.20;;;;;;;;;;5002686;28;20089;-92
2024/02/19 00:23:29;;;;;;;0.20;0.20;;;;;;;;;;5007539;28;20480;-91
2024/02/19 00:25:56;;;;;;;0.95;0.30;;;;;;;;;;5006971;28;20116;-91
2024/02/19 00:28:24;;;;;;;0.20;0.20;;;;;;;;;;5001169;28;20495;-92
2024/02/19 00:30:51;;;;;;;0.52;0.32;;;;;;;;;;5000819;28;20054;-93
2024/02/19 00:33:24;;;;;;;0.20;0.20;;;;;;;;;;5001059;28;20454;-92
2024/02/19 00:35:53;;;;;;;1.50;0.30;;;;;;;;;;5000922;28;20061;-93
2024/02/19 00:38:21;;;;;;;0.30;0.30;;;;;;;;;;5001089;28;20458;-92
2024/02/19 00:40:48;;;;;;;0.10;0.10;;;;;;;;;;5009070;28;20073;-92
2024/02/19 00:43:15;;;;;;;0.40;0.20;;;;;;;;;;5004217;28;20053;-92
2024/02/19 00:45:43;;;;;;;0.35;0.30;;;;;;;;;;5009175;28;20150;-91
2024/02/19 00:48:10;;;;;;;0.20;0.20;;;;;;;;;;5004870;28;20054;-92
2024/02/19 00:50:37;;;;;;;0.57;0.20;;;;;;;;;;5011109;28;20112;-93
2024/02/19 00:53:04;;;;;;;0.10;0.10;;;;;;;;;;5008276;28;20070;-92
2024/02/19 00:55:32;;;;;;;0.30;0.20;;;;;;;;;;5016200;28;20553;-92
2024/02/19 00:57:59;;;;;;;0.45;0.38;;;;;;;;;;5015849;28;20053;-92
2024/02/19 01:00:26;;;;;;;0.30;0.30;;;;;;;;;;5016306;28;20517;-91
2024/02/19 01:02:54;;;;;;;0.43;0.40;;;;;;;;;;5008016;28;20483;-91
2024/02/19 01:05:21;;;;;;;0.30;0.10;;;;;;;;;;5012152;28;20081;-91
2024/02/19 01:07:48;;;;;;;0.40;0.20;;;;;;;;;;5003956;28;20108;-92
2024/02/19 01:10:15;;;;;;;1.15;0.20;;;;;;;;;;5015846;28;20491;-93
2024/02/19 01:12:43;;;;;;;0.15;0.15;;;;;;;;;;5015974;28;20046;-92
2024/02/19 01:15:10;;;;;;;0.20;0.20;;;;;;;;;;5007568;28;20062;-93
2024/02/19 01:17:37;;;;;;;0.25;0.25;;;;;;;;;;5015660;28;20053;-92
2024/02/19 01:20:06;;;;;;;0.40;0.20;;;;;;;;;;5007965;28;20046;-92
2024/02/19 01:22:33;;;;;;;0.40;0.20;;;;;;;;;;5009910;28;20060;-92
2024/02/19 01:25:01;;;;;;;0.38;0.20;;;;;;;;;;5005694;28;20100;-93
2024/02/19 01:27:28;;;;;;;0.20;0.20;;;;;;;;;;5010602;28;20105;-92
2024/02/19 01:29:56;;;;;;;0.25;0.10;;;;;;;;;;5013982;28;20081;-91
2024/02/19 01:32:23;;;;;;;0.20;0.20;;;;;;;;;;5018829;28;20046;-93
2024/02/19 01:34:51;;;;;;;0.47;0.20;;;;;;;;;;5004542;28;20050;-93
2024/02/19 01:37:20;;;;;;;1.23;0.20;;;;;;;;;;5004215;28;20077;-93
2024/02/19 01:39:48;;;;;;;0.20;0.13;;;;;;;;;;5003777;28;20456;-92
2024/02/19 01:42:15;;;;;;;0.13;0.13;;;;;;;;;;5015442;28;20052;-90
2024/02/19 01:44:42;;;;;;;0.13;0.10;;;;;;;;;;5008362;28;20058;-92
2024/02/19 01:47:10;;;;;;;0.35;0.30;;;;;;;;;;5003907;28;20046;-92
2024/02/19 01:49:38;;;;;;;0.10;0.10;;;;;;;;;;5003946;28;20502;-93
2024/02/19 01:52:07;;;;;;;0.35;0.20;;;;;;;;;;5005533;28;20065;-92
2024/02/19 01:54:35;;;;;;;0.32;0.10;;;;;;;;;;5009134;28;20050;-94
2024/02/19 01:57:02;;;;;;;0.00;0.00;;;;;;;;;;5004992;28;20104;-93
2024/02/19 01:59:31;;;;;;;0.30;0.15;;;;;;;;;;5009275;28;20050;-92
2024/02/19 02:01:59;;;;;;;0.68;0.10;;;;;;;;;;5012834;28;20100;-92
2024/02/19 02:04:27;;;;;;;1.40;0.10;;;;;;;;;;5011522;28;20058;-91
2024/02/19 02:06:55;;;;;;;0.22;0.10;;;;;;;;;;5003755;28;20046;-91
2024/02/19 02:09:23;;;;;;;0.20;0.10;;;;;;;;;;5010928;28;20423;-91
2024/02/19 02:11:50;;;;;;;0.10;0.10;;;;;;;;;;5011115;28;20080;-91
2024/02/19 02:14:17;;;;;;;0.10;0.10;;;;;;;;;;5019669;28;20113;-90
2024/02/19 02:16:44;;;;;;;0.00;0.00;;;;;;;;;;5007169;28;20078;-91
2024/02/19 02:19:15;;;;;;;0.00;0.00;;;;;;;;;;5003033;28;20050;-90
2024/02/19 02:21:44;;;;;;;0.10;0.10;;;;;;;;;;5003172;28;20081;-90
2024/02/19 02:24:11;;;;;;;0.10;0.10;;;;;;;;;;5003118;28;20054;-90
2024/02/19 02:26:39;;;;;;;0.10;0.10;;;;;;;;;;5006412;28;20078;-91
2024/02/19 02:29:06;;;;;;;0.05;0.05;;;;;;;;;;5013333;28;20112;-91
2024/02/19 02:31:34;;;;;;;0.20;0.10;;;;;;;;;;5010867;28;20046;-91
2024/02/19 02:34:01;;;;;;;0.15;0.10;;;;;;;;;;5004168;28;20160;-90
2024/02/19 02:36:29;;;;;;;0.45;0.10;;;;;;;;;;5009356;28;20126;-90
2024/02/19 02:38:56;;;;;;;0.95;0.10;;;;;;;;;;5002811;28;20058;-91
2024/02/19 02:41:23;;;;;;;0.10;0.10;;;;;;;;;;5002820;28;20097;-91
2024/02/19 02:43:51;;;;;;;0.10;0.10;;;;;;;;;;5007569;28;20446;-91
2024/02/19 02:46:18;;;;;;;0.10;0.10;;;;;;;;;;5031091;28;20077;-91
2024/02/19 02:48:45;;;;;;;0.10;0.10;;;;;;;;;;5006795;28;20093;-90
2024/02/19 02:51:12;;;;;;;0.10;0.10;;;;;;;;;;5010210;28;20056;-91
2024/02/19 02:53:40;;;;;;;0.17;0.10;;;;;;;;;;5005735;28;20046;-91
2024/02/19 02:56:07;;;;;;;0.10;0.10;;;;;;;;;;5012820;28;20050;-91
2024/02/19 02:58:34;;;;;;;0.03;0.03;;;;;;;;;;5007477;28;20097;-92
2024/02/19 03:01:02;;;;;;;0.00;0.00;;;;;;;;;;5002162;28;20108;-92
2024/02/19 03:03:32;;;;;;;0.20;0.20;;;;;;;;;;5002204;28;20105;-92
2024/02/19 03:06:00;;;;;;;0.95;0.10;;;;;;;;;;5002530;28;20061;-91
2024/02/19 03:08:27;;;;;;;0.55;0.20;;;;;;;;;;5001511;28;20142;-92
2024/02/19 03:10:54;;;;;;;0.40;0.15;;;;;;;;;;5002628;28;20542;-92
2024/02/19 03:13:22;;;;;;;0.90;0.20;;;;;;;;;;5009099;28;20274;-92
2024/02/19 03:15:49;;;;;;;0.52;0.10;;;;;;;;;;5006168;28;20137;-91
2024/02/19 03:18:17;;;;;;;0.68;0.30;;;;;;;;;;5002235;28;20047;-91
2024/02/19 03:20:44;;;;;;;0.20;0.20;;;;;;;;;;5008736;28;20114;-91
2024/02/19 03:23:11;;;;;;;0.15;0.15;;;;;;;;;;5005371;28;20152;-90
2024/02/19 03:25:38;;;;;;;0.77;0.20;;;;;;;;;;5009745;28;20054;-91
2024/02/19 03:28:06;;;;;;;3.60;0.50;;;;;;;;;;5001675;28;20145;-90
2024/02/19 03:30:34;;;;;;;0.20;0.10;;;;;;;;;;5001811;28;20046;-90
2024/02/19 03:33:01;;;;;;;1.55;0.20;;;;;;;;;;5001792;28;20542;-90
2024/02/19 03:35:28;;;;;;;0.22;0.22;;;;;;;;;;5001535;28;20054;-89
2024/02/19 03:37:55;;;;;;;0.32;0.32;;;;;;;;;;5001380;28;20065;-90
2024/02/19 03:40:23;;;;;;;1.50;1.42;;;;;;;;;;5001503;28;20108;-90
2024/02/19 03:42:51;;;;;;;1.60;1.50;;;;;;;;;;5009581;28;20058;-90
2024/02/19 03:45:19;;;;;;;0.88;0.80;;;;;;;;;;5009534;28;20104;-90
2024/02/19 03:47:46;;;;;;;1.10;0.30;;;;;;;;;;5001417;28;20046;-90
2024/02/19 03:50:13;;;;;;;0.43;0.43;;;;;;;;;;5001609;28;20050;-90
2024/02/19 03:52:40;;;;;;;0.60;0.20;;;;;;;;;;5001244;28;20046;-90
2024/02/19 03:55:08;;;;;;;0.35;0.30;;;;;;;;;;5001066;28;20057;-91
2024/02/19 03:57:36;;;;;;;1.48;0.65;;;;;;;;;;5007418;28;20060;-90
2024/02/19 04:00:04;;;;;;;0.50;0.50;;;;;;;;;;5013310;28;20061;-90
2024/02/19 04:02:32;;;;;;;0.90;0.90;;;;;;;;;;5013695;28;20411;-90
2024/02/19 04:04:59;;;;;;;0.73;0.73;;;;;;;;;;5001404;28;20105;-90
2024/02/19 04:07:26;;;;;;;2.80;2.60;;;;;;;;;;5000637;28;20058;-88
2024/02/19 04:09:53;;;;;;;3.10;2.90;;;;;;;;;;5009769;28;20553;-91
2024/02/19 04:12:21;;;;;;;1.73;1.40;;;;;;;;;;5008198;28;20100;-89
2024/02/19 04:14:48;;;;;;;7.15;4.65;;;;;;;;;;5000986;28;20080;-90
2024/02/19 04:17:15;;;;;;;1.75;0.63;;;;;;;;;;5000993;28;20046;-89
2024/02/19 04:19:43;;;;;;;0.30;0.20;;;;;;;;;;5000974;28;20050;-89
2024/02/19 04:22:10;;;;;;;1.63;0.50;;;;;;;;;;5002787;28;20082;-90
2024/02/19 04:24:38;;;;;;;0.73;0.73;;;;;;;;;;5006206;28;20410;-90
2024/02/19 04:27:05;;;;;;;0.40;0.40;;;;;;;;;;5007917;28;20046;-90
2024/02/19 04:29:33;;;;;;;0.30;0.30;;;;;;;;;;5001218;28;20565;-90
2024/02/19 04:32:00;;;;;;;1.30;0.98;;;;;;;;;;5009082;28;20053;-90
2024/02/19 04:34:27;;;;;;;3.70;1.45;;;;;;;;;;5002405;28;20065;-90
2024/02/19 04:36:54;;;;;;;0.95;0.52;;;;;;;;;;5001316;28;20051;-89
2024/02/19 04:39:22;;;;;;;1.38;0.30;;;;;;;;;;5008441;28;20097;-90
2024/02/19 04:41:49;;;;;;;0.10;0.10;;;;;;;;;;5005600;28;20051;-89
2024/02/19 04:44:16;;;;;;;0.10;0.10;;;;;;;;;;5001024;28;20054;-89
2024/02/19 04:46:43;;;;;;;1.60;0.20;;;;;;;;;;5000880;28;20054;-89
2024/02/19 04:49:11;;;;;;;0.08;0.08;;;;;;;;;;5008803;28;20113;-89
2024/02/19 04:51:38;;;;;;;1.17;0.10;;;;;;;;;;5004053;28;20050;-90
2024/02/19 04:54:05;;;;;;;0.05;0.05;;;;;;;;;;5000979;28;20137;-89
2024/02/19 04:56:32;;;;;;;2.45;0.10;;;;;;;;;;5000851;28;20050;-89
2024/02/19 04:59:00;;;;;;;1.25;0.13;;;;;;;;;;5009972;28;20054;-89
2024/02/19 05:01:31;;;;;;;0.82;0.55;;;;;;;;;;5008734;28;20077;-89
2024/02/19 05:03:59;;;;;;;2.80;0.20;;;;;;;;;;5000802;28;20050;-90
2024/02/19 05:06:28;;;;;;;0.77;0.10;;;;;;;;;;5000977;28;20054;-89
2024/02/19 05:08:56;;;;;;;5.38;3.20;;;;;;;;;;5009640;28;20561;-90
2024/02/19 05:11:23;;;;;;;1.95;0.30;;;;;;;;;;5007953;28;20058;-89
2024/02/19 05:13:51;;;;;;;4.95;0.45;;;;;;;;;;5001684;28;20086;-90
2024/02/19 05:16:19;;;;;;;2.40;0.55;;;;;;;;;;5016626;28;20066;-89
2024/02/19 05:18:46;;;;;;;2.55;0.65;;;;;;;;;;5000543;28;20051;-89
2024/02/19 05:21:14;;;;;;;0.68;0.40;;;;;;;;;;5000853;28;20058;-90
2024/02/19 05:23:41;;;;;;;0.30;0.30;;;;;;;;;;5000639;28;20046;-89
2024/02/19 05:26:09;;;;;;;0.38;0.28;;;;;;;;;;5000793;28;20082;-90
2024/02/19 05:28:36;;;;;;;0.55;0.30;;;;;;;;;;5000343;28;20046;-90
2024/02/19 05:31:04;;;;;;;1.00;0.40;;;;;;;;;;5000426;28;20468;-90
2024/02/19 05:33:31;;;;;;;1.98;1.17;;;;;;;;;;5003140;28;20057;-89
2024/02/19 05:35:59;;;;;;;0.50;0.50;;;;;;;;;;5004917;28;20054;-89
2024/02/19 05:38:26;;;;;;;4.80;1.70;;;;;;;;;;5015474;28;20092;-89
2024/02/19 05:40:53;;;;;;;2.92;0.60;;;;;;;;;;5007155;28;20101;-90
2024/02/19 05:43:21;;;;;;;3.00;0.20;;;;;;;;;;5011118;28;20050;-90
2024/02/19 05:45:48;;;;;;;0.40;0.30;;;;;;;;;;5003820;28;20050;-90
2024/02/19 05:48:15;;;;;;;1.13;0.52;;;;;;;;;;5006891;28;20152;-90
2024/02/19 05:50:43;;;;;;;0.38;0.13;;;;;;;;;;5008257;28;20046;-90
2024/02/19 05:53:10;;;;;;;0.20;0.20;;;;;;;;;;5011014;28;20054;-90
2024/02/19 05:55:37;;;;;;;0.10;0.10;;;;;;;;;;5003158;28;20050;-90
2024/02/19 05:58:05;;;;;;;0.93;0.10;;;;;;;;;;5005137;28;20415;-90
2024/02/19 06:00:32;;;;;;;0.08;0.08;;;;;;;;;;5009599;28;20509;-90
2024/02/19 06:03:04;;;;;;;0.00;0.00;;;;;;;;;;5009578;28;20058;-90
2024/02/19 06:05:31;;;;;;;0.63;0.57;;;;;;;;;;5003718;28;20109;-90
2024/02/19 06:07:58;;;;;;;0.22;0.20;;;;;;;;;;5010962;28;20136;-89
2024/02/19 06:10:26;;;;;;;0.00;0.00;;;;;;;;;;5004979;28;20047;-90
2024/02/19 06:12:53;;;;;;;0.32;0.10;;;;;;;;;;5003254;28;20043;-90
2024/02/19 06:15:20;;;;;;;0.00;0.00;;;;;;;;;;5007240;28;20455;-90
2024/02/19 06:17:47;;;;;;;0.47;0.20;;;;;;;;;;5006982;28;20096;-90
2024/02/19 06:20:15;;;;;;;0.00;0.00;;;;;;;;;;5014506;28;20061;-89
2024/02/19 06:22:42;;;;;;;0.75;0.10;;;;;;;;;;5007340;28;20054;-91
2024/02/19 06:25:11;;;;;;;0.10;0.10;;;;;;;;;;5005488;28;20054;-91
2024/02/19 06:27:38;;;;;;;1.30;0.10;;;;;;;;;;5014460;28;20050;-90
2024/02/19 06:30:06;;;;;;;1.60;0.20;;;;;;;;;;5020504;28;20026;-92
2024/02/19 06:32:33;;;;;;;0.10;0.10;;;;;;;;;;5008779;28;20527;-91
2024/02/19 06:35:01;;;;;;;0.47;0.20;;;;;;;;;;5008861;28;20042;-91
2024/02/19 06:37:29;;;;;;;0.10;0.10;;;;;;;;;;5002599;28;20058;-91
2024/02/19 06:39:56;;;;;;;0.10;0.10;;;;;;;;;;5011675;28;20069;-92
2024/02/19 06:42:24;;;;;;;2.42;0.77;;;;;;;;;;5009739;28;20053;-89
2024/02/19 06:44:51;;;;;;;1.05;0.22;;;;;;;;;;5002097;28;20491;-92
2024/02/19 06:47:18;;;;;;;0.15;0.10;;;;;;;;;;5003734;28;20113;-92
2024/02/19 06:49:45;;;;;;;1.60;0.10;;;;;;;;;;5006851;28;20109;-91
2024/02/19 06:52:13;;;;;;;0.10;0.10;;;;;;;;;;5005380;28;20049;-92
2024/02/19 06:54:40;;;;;;;0.20;0.20;;;;;;;;;;5010974;28;20116;-92
2024/02/19 06:57:08;;;;;;;0.80;0.10;;;;;;;;;;5002747;28;20050;-92
2024/02/19 06:59:35;;;;;;;0.10;0.00;;;;;;;;;;5002719;28;20054;-92
2024/02/19 07:02:03;;;;;;;0.70;0.15;;;;;;;;;;5002358;28;20077;-92
2024/02/19 07:04:36;;;;;;;1.98;0.20;;;;;;;;;;5002377;28;20153;-91
2024/02/19 07:07:08;;;;;;;1.77;0.30;;;;;;;;;;5010255;28;20053;-92
2024/02/19 07:09:37;;;;;;;0.68;0.20;;;;;;;;;;5008685;28;20050;-92
2024/02/19 07:12:05;;;;;;;1.77;0.20;;;;;;;;;;5013961;28;20108;-92
2024/02/19 07:14:32;;;;;;;1.23;0.25;;;;;;;;;;5007991;28;20089;-93
2024/02/19 07:17:00;;;;;;;1.55;0.05;;;;;;;;;;5001773;28;20081;-92
2024/02/19 07:19:27;;;;;;;1.20;0.28;;;;;;;;;;5002291;28;20466;-91
2024/02/19 07:21:55;;;;;;;0.80;0.20;;;;;;;;;;5002577;28;20061;-91
2024/02/19 07:24:22;;;;;;;0.17;0.17;;;;;;;;;;5013662;28;20049;-91
2024/02/19 07:26:49;;;;;;;1.48;0.43;;;;;;;;;;5005816;28;20057;-91
2024/02/19 07:29:17;;;;;;;0.20;0.10;;;;;;;;;;4993891;28;20550;-92
2024/02/19 07:31:44;;;;;;;0.10;0.10;;;;;;;;;;5008752;28;20050;-93
2024/02/19 07:34:11;;;;;;;0.10;0.10;;;;;;;;;;5005283;28;20065;-92
2024/02/19 07:36:38;;;;;;;4.53;0.30;;;;;;;;;;5006624;28;20081;-92
2024/02/19 07:39:07;;;;;;;13.38;1.23;;;;;;;;;;5011807;28;20445;-91
2024/02/19 07:41:34;;;;;;;0.50;0.22;;;;;;;;;;5007643;28;20065;-93
2024/02/19 07:44:02;;;;;;;3.47;0.30;;;;;;;;;;5013295;28;20042;-93
2024/02/19 07:46:29;;;;;;;2.55;0.25;;;;;;;;;;5006470;28;20050;-91
2024/02/19 07:48:56;;;;;;;0.30;0.30;;;;;;;;;;5001766;28;20051;-92
2024/02/19 07:51:23;;;;;;;0.82;0.20;;;;;;;;;;5001716;28;20054;-92
2024/02/19 07:53:51;;;;;;;1.38;0.10;;;;;;;;;;5009489;28;20107;-94
2024/02/19 07:56:18;;;;;;;2.25;0.20;;;;;;;;;;5000189;28;20050;-93
2024/02/19 07:58:46;;;;;;;1.33;0.20;;;;;;;;;;5001425;28;20054;-92
2024/02/19 08:01:13;;;;;;;1.20;0.38;;;;;;;;;;5004861;28;20081;-93
2024/02/19 08:03:41;;;;;;;1.27;0.80;;;;;;;;;;5006323;28;20553;-92
2024/02/19 08:06:08;;;;;;;0.30;0.30;;;;;;;;;;5001342;28;20491;-92
2024/02/19 08:08:36;;;;;;;3.85;1.40;;;;;;;;;;5007342;28;20071;-92
2024/02/19 08:11:03;;;;;;;0.38;0.22;;;;;;;;;;5004435;28;20054;-92
2024/02/19 08:13:30;;;;;;;0.50;0.20;;;;;;;;;;5007171;28;20566;-91
2024/02/19 08:15:58;;;;;;;0.40;0.30;;;;;;;;;;5011472;28;20050;-92
2024/02/19 08:18:26;;;;;;;2.58;1.75;;;;;;;;;;5007670;28;20109;-92
2024/02/19 08:20:53;;;;;;;0.43;0.43;;;;;;;;;;5001771;28;20157;-92
2024/02/19 08:23:21;;;;;;;1.63;0.50;;;;;;;;;;5009546;28;20050;-93
2024/02/19 08:25:48;;;;;;;1.60;0.35;;;;;;;;;;5001222;28;20078;-91
2024/02/19 08:28:15;;;;;;;0.70;0.10;;;;;;;;;;5000899;28;20057;-90
2024/02/19 08:30:43;;;;;;;0.30;0.20;;;;;;;;;;5000959;28;20476;-91
2024/02/19 08:33:10;;;;;;;1.00;1.00;;;;;;;;;;5001080;28;20056;-92
2024/02/19 08:35:37;;;;;;;2.50;0.30;;;;;;;;;;5001102;28;20137;-90
2024/02/19 08:38:05;;;;;;;0.40;0.40;;;;;;;;;;5000905;28;20058;-93
2024/02/19 08:40:32;;;;;;;4.63;0.55;;;;;;;;;;5000815;28;20070;-92
2024/02/19 08:43:00;;;;;;;1.30;0.45;;;;;;;;;;5010348;28;20057;-91
2024/02/19 08:45:27;;;;;;;1.90;0.32;;;;;;;;;;5007810;28;20054;-91
2024/02/19 08:48:02;;;;;;;1.55;0.60;;;;;;;;;;4998526;28;20046;-93
2024/02/19 08:50:30;;;;;;;1.42;0.88;;;;;;;;;;5000848;28;20174;-92
2024/02/19 08:52:57;;;;;;;0.10;0.10;;;;;;;;;;5000703;28;20051;-92
2024/02/19 08:55:24;;;;;;;1.77;0.43;;;;;;;;;;5001593;28;20097;-90
2024/02/19 08:57:52;;;;;;;1.02;0.60;;;;;;;;;;5003438;28;20077;-89
2024/02/19 09:00:19;;;;;;;5.72;1.00;;;;;;;;;;5012686;28;20053;-91
2024/02/19 09:02:46;;;;;;;3.05;0.32;;;;;;;;;;5001051;28;20105;-93
2024/02/19 09:05:13;;;;;;;6.97;0.63;;;;;;;;;;5000958;28;20050;-92
2024/02/19 09:07:41;;;;;;;4.38;2.13;;;;;;;;;;5001683;28;20089;-92
2024/02/19 09:10:08;;;;;;;1.23;0.40;;;;;;;;;;5004731;28;20057;-94
2024/02/19 09:12:36;;;;;;;0.60;0.60;;;;;;;;;;5004418;28;20419;-93
2024/02/19 09:15:04;;;;;;;1.35;0.20;;;;;;;;;;5004573;28;20050;-91
2024/02/19 09:17:31;;;;;;;1.45;0.20;;;;;;;;;;5004579;28;20117;-91
2024/02/19 09:19:59;;;;;;;0.52;0.17;;;;;;;;;;5012383;28;20140;-92
2024/02/19 09:22:27;;;;;;;0.20;0.10;;;;;;;;;;5001179;28;20058;-93
2024/02/19 09:24:55;;;;;;;0.10;0.10;;;;;;;;;;5007366;28;20073;-91
2024/02/19 09:27:23;;;;;;;31.15;2.30;;;;;;;;;;5003899;28;20120;-91
2024/02/19 09:29:51;;;;;;;2.83;0.30;;;;;;;;;;5007441;28;20407;-91
2024/02/19 09:32:18;;;;;;;0.40;0.10;;;;;;;;;;5009501;28;20053;-92
2024/02/19 09:34:45;;;;;;;1.58;0.40;;;;;;;;;;5016299;28;20073;-92
2024/02/19 09:37:13;;;;;;;1.08;0.38;;;;;;;;;;5015399;28;20054;-92
2024/02/19 09:39:41;;;;;;;11.57;0.70;;;;;;;;;;5009178;28;20058;-92
2024/02/19 09:42:09;;;;;;;0.20;0.20;;;;;;;;;;5004356;28;20050;-91
2024/02/19 09:44:36;;;;;;;0.63;0.50;;;;;;;;;;5003929;28;20059;-90
2024/02/19 09:47:04;;;;;;;0.10;0.10;;;;;;;;;;5005845;28;20061;-92
2024/02/19 09:49:32;;;;;;;0.75;0.10;;;;;;;;;;5010372;28;20096;-92
2024/02/19 09:52:03;;;;;;;0.40;0.40;;;;;;;;;;5005461;28;20458;-92
2024/02/19 09:54:31;;;;;;;0.10;0.10;;;;;;;;;;5015878;28;20092;-92
2024/02/19 09:56:58;;;;;;;0.68;0.10;;;;;;;;;;5007069;28;20400;-93
2024/02/19 09:59:28;;;;;;;0.20;0.20;;;;;;;;;;5011719;28;20526;-93
2024/02/19 10:01:55;;;;;;;0.30;0.10;;;;;;;;;;5004146;28;20046;-92
2024/02/19 10:04:23;;;;;;;1.02;0.20;;;;;;;;;;5003825;28;20046;-92
2024/02/19 10:06:52;;;;;;;1.02;0.00;;;;;;;;;;5004072;28;20113;-91
2024/02/19 10:09:21;;;;;;;0.10;0.10;;;;;;;;;;4999666;28;20042;-93
2024/02/19 10:11:49;;;;;;;0.00;0.00;;;;;;;;;;5015419;28;20135;-90
2024/02/19 10:14:17;;;;;;;1.85;0.20;;;;;;;;;;5019997;28;20089;-91
2024/02/19 10:17:00;;;;;;;1.27;0.05;;;;;;;;;;5007239;28;20572;-92
2024/02/19 10:19:27;;;;;;;0.00;0.00;;;;;;;;;;5007340;28;20054;-92
2024/02/19 10:21:55;;;;;;;0.28;0.00;;;;;;;;;;5006952;28;20076;-91
2024/02/19 10:24:23;;;;;;;0.45;0.10;;;;;;;;;;5010504;28;20137;-92
2024/02/19 10:26:51;;;;;;;0.10;0.10;;;;;;;;;;5002768;28;20501;-92
2024/02/19 10:29:20;;;;;;;0.50;0.10;;;;;;;;;;4999290;28;20053;-91
2024/02/19 10:31:47;;;;;;;3.25;0.20;;;;;;;;;;5011699;28;20050;-89
2024/02/19 10:34:16;;;;;;;0.00;0.00;;;;;;;;;;5003081;28;20507;-92
2024/02/19 10:36:49;;;;;;;0.00;0.00;;;;;;;;;;5009864;28;20054;-92
2024/02/19 10:39:16;;;;;;;2.25;0.10;;;;;;;;;;5012004;28;20042;-92
2024/02/19 10:41:44;;;;;;;1.88;0.20;;;;;;;;;;5007146;28;20073;-92
2024/02/19 10:44:12;;;;;;;0.80;0.20;;;;;;;;;;5002755;28;20062;-90
2024/02/19 10:46:39;;;;;;;0.22;0.00;;;;;;;;;;5002966;28;20565;-91
2024/02/19 10:49:07;;;;;;;0.00;0.00;;;;;;;;;;5003175;28;20419;-92
2024/02/19 10:51:36;;;;;;;0.52;0.10;;;;;;;;;;5002851;28;20054;-90
2024/02/19 10:54:04;;;;;;;1.02;0.20;;;;;;;;;;5002637;28;20466;-92
2024/02/19 10:56:36;;;;;;;0.45;0.10;;;;;;;;;;5002614;28;20128;-92
2024/02/19 10:59:04;;;;;;;2.42;0.30;;;;;;;;;;5002521;28;20054;-92
2024/02/19 11:01:41;;;;;;;0.50;0.10;;;;;;;;;;5002399;28;20458;-92
2024/02/19 11:04:12;;;;;;;0.32;0.20;;;;;;;;;;5010363;28;20455;-93
2024/02/19 11:06:40;;;;;;;0.52;0.10;;;;;;;;;;5005342;28;20137;-91
2024/02/19 11:09:12;;;;;;;2.10;0.20;;;;;;;;;;5002574;28;20054;-90
2024/02/19 11:11:48;;;;;;;0.10;0.10;;;;;;;;;;5008881;28;20050;-92
2024/02/19 11:14:22;;;;;;;4.38;0.43;;;;;;;;;;5005611;28;20057;-92
2024/02/19 11:16:50;;;;;;;0.13;0.10;;;;;;;;;;5004992;28;20050;-91
2024/02/19 11:19:18;;;;;;;0.00;0.00;;;;;;;;;;5002263;28;20166;-91
2024/02/19 11:21:46;;;;;;;0.20;0.10;;;;;;;;;;5002982;28;20058;-92
2024/02/19 11:24:13;;;;;;;0.10;0.10;;;;;;;;;;5001997;28;20054;-92
2024/02/19 11:26:44;;;;;;;1.05;0.05;;;;;;;;;;5002706;28;20550;-93
2024/02/19 11:29:15;;;;;;;0.20;0.00;;;;;;;;;;5017517;28;20097;-92
2024/02/19 11:31:43;;;;;;;1.27;0.10;;;;;;;;;;5001664;28;20483;-89
2024/02/19 11:34:18;;;;;;;0.30;0.30;;;;;;;;;;5012783;28;20407;-91
2024/02/19 11:36:46;;;;;;;6.00;0.50;;;;;;;;;;5006097;28;20062;-90
2024/02/19 11:39:13;;;;;;;0.00;0.00;;;;;;;;;;5012781;28;20056;-90
2024/02/19 11:41:44;;;;;;;0.43;0.10;;;;;;;;;;5006724;28;20058;-90
2024/02/19 11:44:15;;;;;;;0.00;0.00;;;;;;;;;;5002035;28;20066;-92
2024/02/19 11:46:43;;;;;;;0.20;0.20;;;;;;;;;;5001746;28;20479;-91
2024/02/19 11:49:12;;;;;;;0.90;0.30;;;;;;;;;;5001597;28;20105;-89
2024/02/19 11:51:39;;;;;;;1.42;0.20;;;;;;;;;;5001520;28;20078;-91
2024/02/19 11:54:09;;;;;;;0.40;0.20;;;;;;;;;;5009514;28;20046;-90
2024/02/19 11:56:43;;;;;;;0.38;0.10;;;;;;;;;;5003827;28;20507;-91
2024/02/19 11:59:10;;;;;;;0.43;0.40;;;;;;;;;;5001530;28;20046;-90
2024/02/19 12:01:38;;;;;;;1.20;0.08;;;;;;;;;;5001632;28;20089;-91
2024/02/19 12:04:07;;;;;;;0.28;0.00;;;;;;;;;;5001491;28;20056;-91
2024/02/19 12:06:35;;;;;;;1.92;0.10;;;;;;;;;;5001311;28;20132;-91
2024/02/19 12:09:03;;;;;;;0.10;0.10;;;;;;;;;;4981669;28;20082;-90
2024/02/19 12:11:31;;;;;;;0.60;0.10;;;;;;;;;;4981875;28;20556;-89
2024/02/19 12:14:04;;;;;;;0.10;0.10;;;;;;;;;;4982340;28;20074;-91
2024/02/19 12:16:31;;;;;;;0.75;0.10;;;;;;;;;;4981458;28;20050;-89
2024/02/19 12:18:59;;;;;;;0.00;0.00;;;;;;;;;;4982652;28;20078;-89
2024/02/19 12:21:28;;;;;;;0.65;0.20;;;;;;;;;;4993047;28;20046;-91
2024/02/19 12:23:55;;;;;;;0.30;0.10;;;;;;;;;;4992761;28;20058;-93
2024/02/19 12:26:23;;;;;;;0.10;0.10;;;;;;;;;;4982280;28;20055;-91
2024/02/19 12:28:50;;;;;;;1.30;0.10;;;;;;;;;;4981573;28;20488;-92
2024/02/19 12:31:18;;;;;;;0.03;0.00;;;;;;;;;;4981725;28;20055;-92
2024/02/19 12:33:45;;;;;;;1.10;0.20;;;;;;;;;;4981446;28;20065;-92
2024/02/19 12:36:13;;;;;;;1.27;0.30;;;;;;;;;;4981602;28;20075;-92
2024/02/19 12:38:41;;;;;;;0.25;0.17;;;;;;;;;;4981336;28;20117;-92
2024/02/19 12:41:10;;;;;;;3.10;0.30;;;;;;;;;;4981693;28;20042;-91
2024/02/19 12:43:38;;;;;;;0.55;0.10;;;;;;;;;;5000546;28;20058;-92
2024/02/19 12:46:06;;;;;;;0.30;0.20;;;;;;;;;;4985721;28;20094;-92
2024/02/19 12:48:35;;;;;;;0.10;0.10;;;;;;;;;;4990718;28;20160;-91
2024/02/19 12:51:03;;;;;;;0.20;0.20;;;;;;;;;;4989117;28;20055;-91
2024/02/19 12:53:30;;;;;;;2.80;0.52;;;;;;;;;;4989724;28;20054;-92
2024/02/19 12:55:58;;;;;;;2.33;0.20;;;;;;;;;;4996001;28;20392;-91
2024/02/19 12:58:26;;;;;;;1.38;0.20;;;;;;;;;;4986252;28;20051;-92
2024/02/19 13:00:53;;;;;;;0.45;0.10;;;;;;;;;;4985205;28;20078;-91
2024/02/19 13:03:21;;;;;;;0.10;0.10;;;;;;;;;;4985547;28;20242;-91
2024/02/19 13:05:48;;;;;;;0.63;0.10;;;;;;;;;;4984819;28;20537;-90
2024/02/19 13:08:17;;;;;;;0.10;0.10;;;;;;;;;;5001401;28;20058;-92
2024/02/19 13:10:44;;;;;;;0.55;0.10;;;;;;;;;;5009942;28;20059;-91
2024/02/19 13:13:12;;;;;;;2.63;0.35;;;;;;;;;;5011923;28;20054;-92
2024/02/19 13:15:39;;;;;;;1.95;0.30;;;;;;;;;;5010330;28;20046;-90
2024/02/19 13:18:07;;;;;;;0.40;0.40;;;;;;;;;;5007645;28;20058;-91
2024/02/19 13:20:35;;;;;;;0.40;0.32;;;;;;;;;;5010336;28;20050;-91
2024/02/19 13:23:03;;;;;;;1.45;0.30;;;;;;;;;;5014433;28;20136;-91
2024/02/19 13:25:30;;;;;;;2.67;0.22;;;;;;;;;;5016026;28;20081;-92
2024/02/19 13:27:57;;;;;;;1.65;0.47;;;;;;;;;;5008327;28;20054;-90
2024/02/19 13:30:25;;;;;;;0.20;0.20;;;;;;;;;;5011515;28;20403;-92
2024/02/19 13:32:52;;;;;;;0.68;0.20;;;;;;;;;;5009459;28;20050;-92
2024/02/19 13:35:19;;;;;;;2.17;0.70;;;;;;;;;;5004664;28;20507;-91
2024/02/19 13:37:50;;;;;;;0.88;0.80;;;;;;;;;;5004326;28;20050;-90
2024/02/19 13:40:18;;;;;;;1.20;0.50;;;;;;;;;;5004186;28;20054;-91
2024/02/19 13:42:45;;;;;;;1.33;0.20;;;;;;;;;;5004187;28;20578;-91
2024/02/19 13:45:13;;;;;;;1.02;0.20;;;;;;;;;;5004171;28;20046;-90
2024/02/19 13:47:40;;;;;;;0.10;0.10;;;;;;;;;;5004990;28;20092;-90
2024/02/19 13:50:11;;;;;;;1.25;0.10;;;;;;;;;;5011105;28;20054;-91
2024/02/19 13:52:39;;;;;;;0.20;0.10;;;;;;;;;;5004140;28;20057;-90
2024/02/19 13:55:07;;;;;;;2.92;0.20;;;;;;;;;;5004325;28;20046;-91
2024/02/19 13:57:34;;;;;;;0.20;0.20;;;;;;;;;;5019964;28;20490;-90
2024/02/19 14:00:02;;;;;;;0.20;0.10;;;;;;;;;;5004178;28;20050;-90
2024/02/19 14:02:29;;;;;;;3.33;0.20;;;;;;;;;;5004318;28;20061;-90
2024/02/19 14:04:57;;;;;;;0.63;0.30;;;;;;;;;;5004200;28;20050;-91
2024/02/19 14:07:24;;;;;;;1.30;0.40;;;;;;;;;;5003180;28;20069;-91
2024/02/19 14:09:52;;;;;;;0.25;0.13;;;;;;;;;;5003915;28;20054;-90
2024/02/19 14:12:19;;;;;;;0.17;0.17;;;;;;;;;;5012051;28;20137;-90
2024/02/19 14:14:46;;;;;;;0.13;0.13;;;;;;;;;;5000064;28;20381;-90
2024/02/19 14:17:14;;;;;;;0.28;0.10;;;;;;;;;;5014814;28;20077;-91
2024/02/19 14:19:41;;;;;;;0.77;0.30;;;;;;;;;;5008772;28;20372;-92
2024/02/19 14:22:09;;;;;;;1.02;0.20;;;;;;;;;;5003425;28;20120;-90
2024/02/19 14:24:37;;;;;;;0.98;0.20;;;;;;;;;;5003867;28;20087;-91
2024/02/19 14:27:06;;;;;;;2.85;0.32;;;;;;;;;;5012111;28;20057;-90
2024/02/19 14:29:34;;;;;;;1.00;0.20;;;;;;;;;;5001430;28;20096;-89
2024/02/19 14:32:03;;;;;;;0.25;0.25;;;;;;;;;;5005420;28;20046;-90
2024/02/19 14:34:32;;;;;;;1.17;0.40;;;;;;;;;;5003524;28;20112;-91
2024/02/19 14:37:00;;;;;;;0.93;0.60;;;;;;;;;;5012811;28;20517;-89
2024/02/19 14:39:30;;;;;;;0.70;0.70;;;;;;;;;;5015022;28;20084;-91
2024/02/19 14:41:57;;;;;;;2.92;2.72;;;;;;;;;;5007016;28;20254;-91
2024/02/19 14:44:24;;;;;;;3.10;2.80;;;;;;;;;;5010049;28;20058;-93
2024/02/19 14:46:52;;;;;;;0.40;0.40;;;;;;;;;;5003198;28;20380;-91